createdAt,value
2023-01-17T00:00:29.863Z,7.80
2023-01-17T00:02:57.229Z,7.57
2023-01-17T00:05:42.004Z,7.40
2023-01-17T00:08:32.813Z,7.77
2023-01-17T00:10:59.104Z,7.90
2023-01-17T00:13:25.329Z,8.10
2023-01-17T00:15:52.095Z,7.87
2023-01-17T00:18:18.576Z,8.07
2023-01-17T00:21:03.512Z,7.90
2023-01-17T00:23:48.400Z,7.60
2023-01-17T00:26:19.408Z,8.23
2023-01-17T00:28:46.595Z,7.50
2023-01-17T00:31:14.025Z,7.30
2023-01-17T00:33:40.308Z,8.50
2023-01-17T00:36:06.816Z,7.60
2023-01-17T00:38:35.195Z,7.60
2023-01-17T00:41:02.351Z,7.90
2023-01-17T00:43:47.731Z,7.97
2023-01-17T00:46:32.557Z,7.50
2023-01-17T00:49:17.354Z,7.90
2023-01-17T00:52:02.120Z,7.60
2023-01-17T00:54:46.804Z,7.67
2023-01-17T00:57:31.536Z,8.63
2023-01-17T01:00:16.222Z,7.60
2023-01-17T01:03:00.893Z,7.87
2023-01-17T01:05:45.631Z,7.80
2023-01-17T01:08:38.105Z,7.70
2023-01-17T01:11:23.946Z,7.50
2023-01-17T01:14:08.548Z,7.57
2023-01-17T01:16:53.335Z,7.90
2023-01-17T01:19:38.219Z,7.67
2023-01-17T01:22:22.979Z,7.57
2023-01-17T01:25:07.743Z,7.77
2023-01-17T01:27:52.375Z,7.80
2023-01-17T01:30:37.202Z,7.90
2023-01-17T01:33:19.346Z,7.63
2023-01-17T01:35:46.748Z,7.60
2023-01-17T01:38:13.020Z,7.50
2023-01-17T01:40:43.064Z,7.70
2023-01-17T01:43:10.771Z,8.03
2023-01-17T01:45:37.079Z,7.60
2023-01-17T01:48:26.497Z,7.70
2023-01-17T01:50:52.766Z,7.80
2023-01-17T01:53:20.175Z,7.80
2023-01-17T01:55:49.146Z,7.70
2023-01-17T01:58:18.569Z,7.97
2023-01-17T02:00:44.869Z,8.13
2023-01-17T02:03:13.623Z,7.80
2023-01-17T02:05:42.410Z,7.87
2023-01-17T02:08:10.256Z,8.00
2023-01-17T02:10:39.952Z,7.80
2023-01-17T02:13:07.095Z,7.73
2023-01-17T02:15:42.775Z,8.17
2023-01-17T02:18:20.927Z,7.70
2023-01-17T02:21:12.014Z,7.80
2023-01-17T02:23:56.977Z,8.10
2023-01-17T02:26:26.274Z,7.60
2023-01-17T02:29:06.905Z,7.80
2023-01-17T02:31:56.375Z,7.60
2023-01-17T02:34:31.866Z,7.60
2023-01-17T02:36:58.063Z,7.97
2023-01-17T02:39:28.180Z,7.70
2023-01-17T02:41:56.800Z,7.83
2023-01-17T02:44:23.915Z,8.17
2023-01-17T02:46:54.459Z,7.60
2023-01-17T02:49:23.078Z,8.20
2023-01-17T02:52:06.022Z,8.20
2023-01-17T02:54:53.275Z,7.90
2023-01-17T02:57:19.486Z,7.80
2023-01-17T02:59:45.729Z,7.80
2023-01-17T03:02:24.821Z,8.13
2023-01-17T03:04:54.008Z,8.43
2023-01-17T03:07:22.436Z,7.70
2023-01-17T03:09:53.403Z,7.50
2023-01-17T03:12:20.535Z,8.40
2023-01-17T03:14:46.782Z,8.33
2023-01-17T03:17:13.088Z,7.70
2023-01-17T03:19:39.395Z,7.70
2023-01-17T03:22:05.621Z,8.10
2023-01-17T03:24:31.866Z,7.73
2023-01-17T03:26:58.087Z,7.60
2023-01-17T03:29:24.387Z,7.50
2023-01-17T03:31:50.605Z,7.60
2023-01-17T03:34:16.918Z,7.70
2023-01-17T03:36:43.158Z,8.30
2023-01-17T03:39:09.420Z,8.13
2023-01-17T03:41:35.649Z,7.80
2023-01-17T03:44:02.231Z,7.60
2023-01-17T03:46:31.507Z,7.50
2023-01-17T03:48:57.791Z,7.70
2023-01-17T03:51:24.089Z,7.60
2023-01-17T03:53:51.820Z,7.63
2023-01-17T03:56:18.159Z,7.70
2023-01-17T03:58:44.427Z,7.97
2023-01-17T04:01:11.194Z,8.23
2023-01-17T04:03:37.503Z,7.93
2023-01-17T04:06:03.793Z,7.60
2023-01-17T04:08:30.673Z,8.30
2023-01-17T04:10:56.992Z,7.73
2023-01-17T04:13:23.258Z,8.33
2023-01-17T04:15:50.203Z,8.17
2023-01-17T04:18:16.839Z,7.50
2023-01-17T04:20:43.182Z,7.90
2023-01-17T04:23:09.412Z,7.60
2023-01-17T04:25:35.882Z,7.60
2023-01-17T04:28:03.671Z,7.70
2023-01-17T04:30:30.672Z,8.00
2023-01-17T04:32:57.382Z,7.40
2023-01-17T04:35:23.661Z,7.77
2023-01-17T04:37:49.988Z,7.93
2023-01-17T04:40:16.550Z,7.83
2023-01-17T04:42:45.970Z,7.87
2023-01-17T04:45:12.637Z,7.90
2023-01-17T04:47:38.889Z,8.00
2023-01-17T04:50:05.354Z,8.37
2023-01-17T04:52:31.575Z,8.10
2023-01-17T04:54:57.828Z,8.10
2023-01-17T04:57:25.093Z,8.10
2023-01-17T04:59:53.425Z,8.17
2023-01-17T05:02:19.667Z,7.70
2023-01-17T05:04:45.945Z,8.00
2023-01-17T05:07:12.295Z,8.40
2023-01-17T05:09:38.548Z,7.70
2023-01-17T05:12:04.788Z,8.00
2023-01-17T05:14:31.722Z,8.20
2023-01-17T05:16:58.240Z,8.33
2023-01-17T05:19:25.129Z,8.07
2023-01-17T05:21:51.654Z,8.03
2023-01-17T05:24:18.741Z,8.00
2023-01-17T05:26:45.600Z,7.60
2023-01-17T05:29:11.939Z,7.80
2023-01-17T05:31:38.209Z,7.83
2023-01-17T05:34:04.696Z,7.80
2023-01-17T05:36:30.958Z,7.90
2023-01-17T05:38:57.236Z,8.27
2023-01-17T05:41:23.527Z,8.00
2023-01-17T05:43:49.755Z,8.40
2023-01-17T05:46:17.930Z,8.30
2023-01-17T05:48:44.283Z,7.83
2023-01-17T05:51:10.540Z,8.43
2023-01-17T05:53:36.802Z,7.73
2023-01-17T05:56:03.074Z,8.00
2023-01-17T05:58:29.359Z,8.30
2023-01-17T06:00:56.071Z,8.70
2023-01-17T06:03:22.320Z,7.80
2023-01-17T06:05:50.055Z,7.80
2023-01-17T06:08:16.469Z,8.10
2023-01-17T06:10:43.237Z,8.23
2023-01-17T06:13:10.537Z,8.20
2023-01-17T06:15:37.371Z,8.30
2023-01-17T06:18:21.781Z,9.03
2023-01-17T06:20:52.247Z,8.23
2023-01-17T06:23:18.935Z,8.50
2023-01-17T06:25:45.721Z,8.10
2023-01-17T06:28:16.107Z,9.03
2023-01-17T06:30:43.708Z,9.07
2023-01-17T06:33:10.316Z,7.70
2023-01-17T06:35:40.833Z,8.57
2023-01-17T06:38:07.644Z,8.10
2023-01-17T06:40:33.875Z,8.33
2023-01-17T06:43:01.687Z,8.17
2023-01-17T06:45:29.794Z,8.60
2023-01-17T06:47:56.057Z,8.50
2023-01-17T06:50:22.315Z,8.87
2023-01-17T06:53:02.944Z,8.33
2023-01-17T06:55:29.731Z,8.20
2023-01-17T06:57:56.897Z,8.33
2023-01-17T07:00:23.338Z,8.93
2023-01-17T07:02:50.577Z,9.27
2023-01-17T07:05:17.185Z,8.53
2023-01-17T07:07:44.409Z,8.20
2023-01-17T07:10:11.465Z,8.20
2023-01-17T07:12:37.974Z,8.60
2023-01-17T07:15:06.398Z,8.53
2023-01-17T07:17:33.797Z,8.27
2023-01-17T07:20:00.239Z,8.80
2023-01-17T07:22:28.846Z,8.10
2023-01-17T07:24:58.526Z,8.30
2023-01-17T07:27:30.242Z,8.50
2023-01-17T07:29:57.053Z,7.90
2023-01-17T07:32:23.341Z,8.73
2023-01-17T07:34:50.921Z,8.67
2023-01-17T07:37:17.240Z,8.73
2023-01-17T07:39:43.497Z,8.10
2023-01-17T07:42:09.777Z,8.37
2023-01-17T07:44:36.121Z,8.23
2023-01-17T07:47:02.485Z,8.00
2023-01-17T07:49:28.782Z,7.90
2023-01-17T07:51:55.577Z,7.90
2023-01-17T07:54:22.019Z,8.57
2023-01-17T07:56:48.232Z,8.17
2023-01-17T07:59:14.539Z,7.80
2023-01-17T08:01:40.921Z,8.20
2023-01-17T08:04:08.295Z,8.53
2023-01-17T08:06:34.828Z,8.07
2023-01-17T08:09:01.091Z,8.53
2023-01-17T08:11:27.339Z,8.20
2023-01-17T08:13:59.399Z,8.57
2023-01-17T08:16:26.814Z,8.80
2023-01-17T08:18:54.414Z,8.70
2023-01-17T08:21:20.679Z,8.43
2023-01-17T08:23:47.794Z,9.03
2023-01-17T08:26:21.123Z,8.27
2023-01-17T08:28:48.539Z,8.30
2023-01-17T08:31:14.905Z,8.23
2023-01-17T08:33:41.183Z,8.30
2023-01-17T08:36:07.461Z,8.07
2023-01-17T08:38:33.678Z,8.37
2023-01-17T08:41:00.628Z,8.10
2023-01-17T08:43:26.883Z,8.10
2023-01-17T08:45:55.862Z,8.07
2023-01-17T08:48:22.953Z,8.33
2023-01-17T08:50:49.781Z,8.10
2023-01-17T08:53:17.996Z,8.40
2023-01-17T08:55:44.239Z,8.63
2023-01-17T08:58:10.498Z,8.20
2023-01-17T09:00:37.176Z,8.20
2023-01-17T09:03:03.515Z,8.47
2023-01-17T09:05:29.760Z,8.43
2023-01-17T09:07:56.621Z,8.00
2023-01-17T09:10:23.597Z,8.10
2023-01-17T09:12:49.914Z,8.00
2023-01-17T09:15:20.081Z,8.40
2023-01-17T09:17:47.444Z,8.50
2023-01-17T09:20:13.842Z,8.97
2023-01-17T09:22:40.072Z,8.60
2023-01-17T09:25:06.958Z,8.00
2023-01-17T09:27:33.220Z,8.30
2023-01-17T09:29:59.450Z,8.20
2023-01-17T09:32:25.684Z,8.03
2023-01-17T09:34:51.894Z,7.83
2023-01-17T09:37:18.146Z,8.00
2023-01-17T09:39:44.433Z,8.20
2023-01-17T09:42:10.786Z,8.10
2023-01-17T09:44:46.910Z,7.80
2023-01-17T09:47:18.227Z,7.90
2023-01-17T09:49:45.458Z,8.10
2023-01-17T09:52:16.664Z,7.80
2023-01-17T09:54:43.955Z,7.90
2023-01-17T09:57:18.056Z,8.00
2023-01-17T10:00:07.738Z,8.20
2023-01-17T10:02:43.057Z,8.60
2023-01-17T10:05:18.255Z,8.00
2023-01-17T10:08:00.421Z,8.13
2023-01-17T10:10:36.042Z,8.10
2023-01-17T10:13:26.080Z,7.70
2023-01-17T10:16:07.609Z,8.27
2023-01-17T10:18:42.949Z,7.90
2023-01-17T10:21:14.211Z,8.00
2023-01-17T10:23:40.431Z,7.77
2023-01-17T10:26:09.809Z,8.00
2023-01-17T10:28:47.457Z,8.33
2023-01-17T10:31:18.205Z,7.90
2023-01-17T10:33:48.300Z,8.10
2023-01-17T10:36:18.325Z,8.00
2023-01-17T10:38:45.944Z,7.90
2023-01-17T10:41:28.605Z,8.13
2023-01-17T10:44:15.380Z,7.50
2023-01-17T10:46:45.275Z,7.90
2023-01-17T10:49:18.863Z,7.60
2023-01-17T10:51:49.691Z,8.30
2023-01-17T10:54:22.796Z,7.60
2023-01-17T10:56:49.109Z,7.80
2023-01-17T10:59:18.070Z,8.23
2023-01-17T11:01:44.486Z,7.83
2023-01-17T11:04:18.486Z,8.03
2023-01-17T11:06:57.943Z,7.90
2023-01-17T11:09:36.553Z,7.80
2023-01-17T11:12:02.818Z,7.93
2023-01-17T11:14:30.697Z,8.10
2023-01-17T11:17:01.121Z,8.10
2023-01-17T11:19:29.673Z,8.07
2023-01-17T11:22:01.582Z,7.50
2023-01-17T11:24:39.736Z,8.50
2023-01-17T11:27:06.717Z,7.80
2023-01-17T11:29:36.107Z,7.80
2023-01-17T11:32:21.852Z,7.70
2023-01-17T11:35:08.407Z,7.40
2023-01-17T11:37:35.744Z,7.60
2023-01-17T11:40:08.999Z,7.40
2023-01-17T11:42:38.577Z,8.07
2023-01-17T11:45:27.789Z,7.20
2023-01-17T11:48:13.178Z,7.30
2023-01-17T11:50:41.314Z,7.50
2023-01-17T11:53:15.859Z,7.73
2023-01-17T11:55:57.607Z,7.30
2023-01-17T11:58:24.589Z,7.30
2023-01-17T12:00:58.377Z,7.40
2023-01-17T12:03:30.821Z,7.37
2023-01-17T12:06:03.367Z,7.13
2023-01-17T12:08:37.306Z,7.50
2023-01-17T12:11:03.569Z,7.30
2023-01-17T12:13:48.245Z,7.30
2023-01-17T12:16:33.224Z,6.90
2023-01-17T12:19:02.564Z,7.00
2023-01-17T12:21:35.641Z,6.97
2023-01-17T12:24:20.658Z,7.00
2023-01-17T12:26:49.920Z,7.20
2023-01-17T12:29:42.110Z,6.77
2023-01-17T12:32:33.189Z,6.80
2023-01-17T12:35:01.791Z,6.80
2023-01-17T12:37:29.516Z,6.80
2023-01-17T12:40:16.045Z,6.37
2023-01-17T12:42:44.365Z,6.40
2023-01-17T12:45:15.088Z,6.40
2023-01-17T12:47:46.780Z,6.30
2023-01-17T12:50:21.105Z,6.30
2023-01-17T12:52:47.317Z,6.10
2023-01-17T12:55:45.868Z,5.80
2023-01-17T12:58:18.823Z,5.80
2023-01-17T13:00:46.610Z,5.60
2023-01-17T13:03:36.783Z,5.37
2023-01-17T13:06:03.471Z,5.00
2023-01-17T13:08:34.191Z,4.70
2023-01-17T13:11:00.553Z,4.50
2023-01-17T13:13:28.084Z,4.20
2023-01-17T13:15:55.646Z,4.10
2023-01-17T13:18:25.658Z,3.80
2023-01-17T13:20:52.838Z,3.90
2023-01-17T13:23:37.580Z,3.60
2023-01-17T13:26:06.698Z,3.50
2023-01-17T13:28:53.547Z,3.40
2023-01-17T13:31:26.218Z,3.40
2023-01-17T13:34:08.780Z,3.10
2023-01-17T13:36:44.515Z,3.27
2023-01-17T13:39:13.806Z,3.10
2023-01-17T13:41:45.576Z,3.20
2023-01-17T13:44:22.813Z,3.07
2023-01-17T13:46:53.023Z,3.13
2023-01-17T13:49:23.926Z,3.00
2023-01-17T13:52:12.209Z,3.20
2023-01-17T13:54:49.769Z,3.40
2023-01-17T13:57:30.206Z,3.50
2023-01-17T13:59:57.456Z,3.67
2023-01-17T14:02:33.070Z,3.60
2023-01-17T14:05:05.657Z,3.80
2023-01-17T14:07:33.526Z,4.07
2023-01-17T14:09:59.768Z,4.10
2023-01-17T14:12:28.966Z,4.30
2023-01-17T14:14:56.565Z,4.70
2023-01-17T14:17:23.095Z,4.93
2023-01-17T14:19:57.548Z,4.77
2023-01-17T14:22:24.530Z,5.10
2023-01-17T14:25:02.900Z,5.50
2023-01-17T14:27:31.963Z,5.50
2023-01-17T14:29:59.078Z,5.50
2023-01-17T14:32:33.027Z,5.90
2023-01-17T14:34:59.547Z,5.83
2023-01-17T14:37:31.654Z,6.10
2023-01-17T14:39:58.397Z,6.10
2023-01-17T14:42:25.987Z,6.57
2023-01-17T14:44:59.359Z,6.30
2023-01-17T14:47:27.138Z,6.40
2023-01-17T14:50:09.315Z,6.40
2023-01-17T14:52:35.564Z,6.60
2023-01-17T14:55:04.576Z,6.90
2023-01-17T14:57:30.877Z,6.50
2023-01-17T15:00:18.912Z,6.70
2023-01-17T15:02:46.495Z,6.70
2023-01-17T15:05:14.090Z,6.80
2023-01-17T15:07:40.947Z,6.70
2023-01-17T15:10:10.691Z,6.90
2023-01-17T15:12:38.648Z,6.80
2023-01-17T15:15:05.244Z,7.20
2023-01-17T15:17:31.495Z,7.00
2023-01-17T15:19:59.250Z,6.80
2023-01-17T15:22:26.222Z,6.90
2023-01-17T15:24:52.991Z,7.20
2023-01-17T15:27:19.387Z,7.00
2023-01-17T15:29:46.523Z,7.20
2023-01-17T15:32:20.677Z,7.10
2023-01-17T15:34:47.946Z,7.20
2023-01-17T15:37:31.216Z,7.10
2023-01-17T15:40:05.803Z,7.40
2023-01-17T15:42:33.872Z,7.50
2023-01-17T15:45:01.736Z,7.63
2023-01-17T15:47:35.443Z,7.17
2023-01-17T15:50:23.585Z,7.20
2023-01-17T15:52:50.970Z,7.20
2023-01-17T15:55:30.555Z,7.27
2023-01-17T15:57:56.838Z,7.50
2023-01-17T16:00:28.742Z,7.37
2023-01-17T16:02:55.762Z,7.60
2023-01-17T16:05:22.614Z,7.10
2023-01-17T16:07:53.398Z,7.30
2023-01-17T16:10:20.894Z,7.30
2023-01-17T16:12:48.437Z,7.70
2023-01-17T16:15:16.946Z,7.50
2023-01-17T16:17:50.307Z,7.80
2023-01-17T16:20:19.639Z,7.43
2023-01-17T16:22:46.255Z,7.70
2023-01-17T16:25:17.169Z,7.60
2023-01-17T16:27:43.688Z,7.70
2023-01-17T16:30:15.495Z,7.80
2023-01-17T16:32:42.608Z,7.50
2023-01-17T16:35:22.574Z,7.37
2023-01-17T16:38:08.543Z,7.37
2023-01-17T16:40:39.163Z,7.50
2023-01-17T16:43:05.403Z,7.47
2023-01-17T16:45:37.339Z,7.67
2023-01-17T16:48:03.604Z,7.37
2023-01-17T16:50:29.828Z,7.50
2023-01-17T16:52:56.978Z,7.40
2023-01-17T16:55:24.221Z,7.60
2023-01-17T16:57:51.737Z,7.43
2023-01-17T17:00:18.360Z,7.47
2023-01-17T17:02:44.640Z,7.40
2023-01-17T17:05:11.187Z,7.93
2023-01-17T17:07:44.012Z,7.80
2023-01-17T17:10:10.520Z,7.83
2023-01-17T17:12:36.824Z,8.03
2023-01-17T17:15:03.269Z,7.83
2023-01-17T17:17:29.553Z,7.87
2023-01-17T17:19:55.825Z,7.90
2023-01-17T17:22:22.059Z,7.47
2023-01-17T17:24:48.292Z,7.57
2023-01-17T17:27:14.561Z,7.70
2023-01-17T17:29:41.148Z,7.93
2023-01-17T17:32:11.375Z,8.00
2023-01-17T17:34:38.541Z,8.30
2023-01-17T17:37:04.843Z,8.10
2023-01-17T17:39:31.093Z,7.80
2023-01-17T17:41:57.411Z,7.90
2023-01-17T17:44:23.619Z,8.13
2023-01-17T17:46:51.543Z,8.27
2023-01-17T17:49:17.841Z,7.57
2023-01-17T17:51:47.961Z,8.23
2023-01-17T17:54:14.949Z,8.03
2023-01-17T17:56:42.264Z,8.10
2023-01-17T17:59:09.268Z,8.00
2023-01-17T18:01:38.172Z,7.93
2023-01-17T18:04:07.322Z,8.00
2023-01-17T18:06:34.484Z,7.90
2023-01-17T18:09:01.176Z,7.60
2023-01-17T18:11:27.767Z,8.53
2023-01-17T18:13:55.075Z,8.20
2023-01-17T18:16:23.286Z,8.10
2023-01-17T18:18:50.928Z,9.53
2023-01-17T18:21:25.223Z,8.20
2023-01-17T18:23:53.494Z,8.10
2023-01-17T18:26:19.737Z,8.50
2023-01-17T18:28:46.282Z,8.20
2023-01-17T18:31:12.703Z,8.23
2023-01-17T18:33:39.600Z,8.10
2023-01-17T18:36:09.692Z,8.20
2023-01-17T18:38:43.910Z,7.77
2023-01-17T18:41:11.881Z,8.10
2023-01-17T18:43:38.644Z,8.83
2023-01-17T18:46:05.489Z,8.30
2023-01-17T18:48:31.757Z,8.77
2023-01-17T18:50:58.846Z,8.47
2023-01-17T18:53:25.106Z,8.20
2023-01-17T18:55:51.998Z,8.13
2023-01-17T18:58:18.297Z,8.00
2023-01-17T19:00:44.710Z,8.30
2023-01-17T19:03:10.943Z,8.03
2023-01-17T19:05:37.230Z,8.17
2023-01-17T19:08:03.511Z,8.30
2023-01-17T19:10:29.733Z,8.50
2023-01-17T19:12:55.957Z,8.07
2023-01-17T19:15:23.576Z,8.07
2023-01-17T19:17:49.892Z,8.33
2023-01-17T19:20:16.788Z,8.03
2023-01-17T19:22:43.231Z,8.47
2023-01-17T19:25:09.479Z,8.40
2023-01-17T19:27:35.753Z,8.60
2023-01-17T19:30:01.989Z,8.73
2023-01-17T19:32:28.225Z,8.50
2023-01-17T19:34:54.457Z,8.40
2023-01-17T19:37:20.793Z,8.70
2023-01-17T19:39:47.015Z,8.53
2023-01-17T19:42:15.594Z,8.50
2023-01-17T19:44:42.359Z,8.50
2023-01-17T19:47:14.904Z,8.00
2023-01-17T19:49:42.371Z,8.57
2023-01-17T19:52:08.690Z,8.70
2023-01-17T19:54:34.950Z,8.10
2023-01-17T19:57:01.325Z,8.83
2023-01-17T19:59:27.789Z,8.13
2023-01-17T20:01:54.340Z,8.00
2023-01-17T20:04:21.032Z,8.87
2023-01-17T20:06:47.275Z,8.40
2023-01-17T20:09:13.500Z,8.17
2023-01-17T20:11:42.690Z,9.73
2023-01-17T20:14:12.552Z,9.33
2023-01-17T20:16:38.855Z,8.10
2023-01-17T20:19:05.238Z,8.53
2023-01-17T20:21:32.140Z,8.50
2023-01-17T20:23:59.406Z,8.40
2023-01-17T20:26:30.885Z,8.90
2023-01-17T20:28:57.222Z,8.47
2023-01-17T20:31:24.648Z,8.77
2023-01-17T20:33:52.862Z,9.13
2023-01-17T20:36:19.836Z,8.50
2023-01-17T20:38:46.308Z,8.50
2023-01-17T20:41:18.594Z,8.90
2023-01-17T20:43:46.636Z,8.80
2023-01-17T20:46:13.691Z,8.93
2023-01-17T20:48:47.067Z,9.20
2023-01-17T20:51:13.769Z,8.80
2023-01-17T20:53:41.554Z,8.40
2023-01-17T20:56:14.627Z,9.23
2023-01-17T20:58:41.352Z,8.70
2023-01-17T21:01:08.896Z,8.73
2023-01-17T21:03:35.582Z,8.50
2023-01-17T21:06:05.848Z,8.50
2023-01-17T21:08:32.881Z,9.00
2023-01-17T21:10:59.185Z,8.93
2023-01-17T21:13:25.965Z,9.00
2023-01-17T21:15:52.557Z,8.90
2023-01-17T21:18:20.155Z,9.10
2023-01-17T21:20:46.831Z,8.50
2023-01-17T21:23:17.915Z,9.23
2023-01-17T21:25:57.384Z,8.67
2023-01-17T21:28:24.762Z,8.57
2023-01-17T21:30:51.651Z,8.37
2023-01-17T21:33:18.277Z,9.53
2023-01-17T21:35:44.961Z,9.33
2023-01-17T21:38:12.459Z,8.63
2023-01-17T21:40:38.693Z,9.00
2023-01-17T21:43:05.113Z,8.87
2023-01-17T21:45:34.028Z,9.93
2023-01-17T21:48:00.514Z,8.97
2023-01-17T21:50:33.336Z,9.13
2023-01-17T21:52:59.970Z,8.93
2023-01-17T21:55:44.750Z,9.23
2023-01-17T21:58:38.591Z,8.93
2023-01-17T22:01:15.604Z,9.30
2023-01-17T22:03:42.464Z,8.77
2023-01-17T22:06:10.134Z,9.47
2023-01-17T22:08:36.517Z,8.80
2023-01-17T22:11:04.129Z,9.07
2023-01-17T22:13:31.322Z,8.83
2023-01-17T22:15:58.709Z,9.33
2023-01-17T22:18:25.107Z,8.90
2023-01-17T22:20:51.379Z,8.40
2023-01-17T22:23:17.657Z,9.53
2023-01-17T22:25:43.913Z,8.90
2023-01-17T22:28:10.143Z,9.70
2023-01-17T22:30:37.180Z,8.50
2023-01-17T22:33:03.623Z,9.43
2023-01-17T22:35:29.918Z,9.23
2023-01-17T22:37:56.146Z,8.40
2023-01-17T22:40:22.367Z,8.70
2023-01-17T22:42:48.616Z,9.20
2023-01-17T22:45:17.340Z,8.93
2023-01-17T22:47:43.589Z,8.60
2023-01-17T22:50:10.314Z,9.33
2023-01-17T22:52:36.553Z,9.23
2023-01-17T22:55:02.852Z,9.27
2023-01-17T22:57:29.095Z,8.53
2023-01-17T22:59:55.300Z,9.17
2023-01-17T23:02:21.632Z,8.83
2023-01-17T23:04:48.872Z,9.03
2023-01-17T23:07:15.380Z,8.60
2023-01-17T23:09:41.658Z,8.93
2023-01-17T23:12:07.895Z,9.23
2023-01-17T23:14:53.551Z,9.07
2023-01-17T23:17:39.339Z,9.00
2023-01-17T23:20:06.337Z,11.63
2023-01-17T23:22:32.574Z,8.97
2023-01-17T23:25:01.791Z,9.00
2023-01-17T23:28:04.568Z,8.70
2023-01-17T23:30:35.351Z,9.73
2023-01-17T23:33:02.733Z,9.10
2023-01-17T23:35:30.180Z,14.83
2023-01-17T23:38:15.467Z,9.37
2023-01-17T23:40:42.178Z,9.20
2023-01-17T23:43:23.721Z,9.83
2023-01-17T23:45:50.814Z,31.73
2023-01-17T23:48:17.053Z,9.23
2023-01-17T23:50:44.451Z,8.83
2023-01-17T23:53:11.892Z,9.57
2023-01-17T23:55:39.234Z,9.03
2023-01-17T23:58:06.533Z,8.83
